createdAt,value
2023-04-24T00:01:04.260Z,100.00
2023-04-24T00:03:36.383Z,100.00
2023-04-24T00:06:07.951Z,100.00
2023-04-24T00:08:39.573Z,100.00
2023-04-24T00:11:11.021Z,100.00
2023-04-24T00:13:42.788Z,100.00
2023-04-24T00:16:14.268Z,100.00
2023-04-24T00:18:46.104Z,100.00
2023-04-24T00:21:17.554Z,100.00
2023-04-24T00:23:49.541Z,100.00
2023-04-24T00:26:20.980Z,100.00
2023-04-24T00:28:52.734Z,100.00
2023-04-24T00:31:24.273Z,100.00
2023-04-24T00:33:56.183Z,100.00
2023-04-24T00:36:27.671Z,100.00
2023-04-24T00:38:59.502Z,100.00
2023-04-24T00:41:30.959Z,100.00
2023-04-24T00:44:02.422Z,100.00
2023-04-24T00:46:33.963Z,100.00
2023-04-24T00:49:05.954Z,100.00
2023-04-24T00:51:37.431Z,100.00
2023-04-24T00:54:08.913Z,100.00
2023-04-24T00:56:40.359Z,100.00
2023-04-24T00:59:12.188Z,100.00
2023-04-24T01:01:43.692Z,100.00
2023-04-24T01:04:15.346Z,100.00
2023-04-24T01:06:46.906Z,100.00
2023-04-24T01:09:18.764Z,100.00
2023-04-24T01:11:50.289Z,100.00
2023-04-24T01:14:22.156Z,100.00
2023-04-24T01:16:53.683Z,100.00
2023-04-24T01:19:25.624Z,100.00
2023-04-24T01:21:57.068Z,100.00
2023-04-24T01:24:28.807Z,100.00
2023-04-24T01:27:00.253Z,100.00
2023-04-24T01:29:32.045Z,100.00
2023-04-24T01:32:03.478Z,100.00
2023-04-24T01:34:35.298Z,100.00
2023-04-24T01:37:07.280Z,100.00
2023-04-24T01:39:38.721Z,100.00
2023-04-24T01:42:10.464Z,100.00
2023-04-24T01:44:41.943Z,100.00
2023-04-24T01:47:13.559Z,100.00
2023-04-24T01:49:45.296Z,100.00
2023-04-24T01:52:17.324Z,100.00
2023-04-24T01:54:48.784Z,100.00
2023-04-24T01:57:20.636Z,100.00
2023-04-24T01:59:52.087Z,100.00
2023-04-24T02:02:24.095Z,100.00
2023-04-24T02:04:55.722Z,100.00
2023-04-24T02:07:27.537Z,100.00
2023-04-24T02:09:59.019Z,100.00
2023-04-24T02:12:30.746Z,100.00
2023-04-24T02:15:02.223Z,100.00
2023-04-24T02:17:34.209Z,100.00
2023-04-24T02:20:05.767Z,100.00
2023-04-24T02:22:37.602Z,100.00
2023-04-24T02:25:09.162Z,100.00
2023-04-24T02:27:40.721Z,100.00
2023-04-24T02:30:12.164Z,100.00
2023-04-24T02:32:44.017Z,100.00
2023-04-24T02:35:15.526Z,100.00
2023-04-24T02:37:47.454Z,100.00
2023-04-24T02:40:18.971Z,100.00
2023-04-24T02:42:50.444Z,100.00
2023-04-24T02:45:21.897Z,100.00
2023-04-24T02:47:53.434Z,100.00
2023-04-24T02:50:24.934Z,100.00
2023-04-24T02:52:56.405Z,100.00
2023-04-24T02:55:27.908Z,100.00
2023-04-24T02:57:59.389Z,100.00
2023-04-24T03:00:30.830Z,100.00
2023-04-24T03:03:02.825Z,100.00
2023-04-24T03:05:34.455Z,100.00
2023-04-24T03:08:06.581Z,100.00
2023-04-24T03:10:38.037Z,100.00
2023-04-24T03:13:09.490Z,100.00
2023-04-24T03:15:40.939Z,100.00
2023-04-24T03:18:12.784Z,100.00
2023-04-24T03:20:44.295Z,100.00
2023-04-24T03:23:15.866Z,100.00
2023-04-24T03:25:47.341Z,100.00
2023-04-24T03:28:18.807Z,100.00
2023-04-24T03:30:50.277Z,100.00
2023-04-24T03:33:22.011Z,100.00
2023-04-24T03:35:53.490Z,100.00
2023-04-24T03:38:25.244Z,100.00
2023-04-24T03:40:56.699Z,100.00
2023-04-24T03:43:28.576Z,100.00
2023-04-24T03:46:00.075Z,100.00
2023-04-24T03:48:31.561Z,100.00
2023-04-24T03:51:03.034Z,100.00
2023-04-24T03:53:34.541Z,100.00
2023-04-24T03:56:06.009Z,100.00
2023-04-24T03:58:37.462Z,100.00
2023-04-24T04:01:09.001Z,100.00
2023-04-24T04:03:40.722Z,100.00
2023-04-24T04:06:12.385Z,100.00
2023-04-24T04:08:43.888Z,100.00
2023-04-24T04:11:16.032Z,100.00
2023-04-24T04:13:47.541Z,100.00
2023-04-24T04:16:19.272Z,100.00
2023-04-24T04:18:50.807Z,100.00
2023-04-24T04:21:22.671Z,100.00
2023-04-24T04:23:54.152Z,100.00
2023-04-24T04:26:26.202Z,100.00
2023-04-24T04:28:57.666Z,100.00
2023-04-24T04:31:29.592Z,100.00
2023-04-24T04:34:01.083Z,100.00
2023-04-24T04:36:32.566Z,100.00
2023-04-24T04:39:04.070Z,100.00
2023-04-24T04:41:35.876Z,100.00
2023-04-24T04:44:07.662Z,100.00
2023-04-24T04:46:39.156Z,100.00
2023-04-24T04:49:10.988Z,100.00
2023-04-24T04:51:43.195Z,100.00
2023-04-24T04:54:14.999Z,100.00
2023-04-24T04:56:46.452Z,100.00
2023-04-24T04:59:17.943Z,100.00
2023-04-24T05:01:49.414Z,100.00
2023-04-24T05:04:21.283Z,100.00
2023-04-24T05:06:52.816Z,100.00
2023-04-24T05:09:24.316Z,100.00
2023-04-24T05:11:55.774Z,100.00
2023-04-24T05:14:27.278Z,100.00
2023-04-24T05:16:58.807Z,100.00
2023-04-24T05:19:30.549Z,100.00
2023-04-24T05:22:02.037Z,100.00
2023-04-24T05:24:33.805Z,100.00
2023-04-24T05:27:05.303Z,100.00
2023-04-24T05:29:37.020Z,100.00
2023-04-24T05:32:08.520Z,100.00
2023-04-24T05:34:40.212Z,100.00
2023-04-24T05:37:11.672Z,100.00
2023-04-24T05:39:43.598Z,100.00
2023-04-24T05:42:15.348Z,100.00
2023-04-24T05:44:47.168Z,100.00
2023-04-24T05:47:18.703Z,100.00
2023-04-24T05:49:50.259Z,100.00
2023-04-24T05:52:21.728Z,100.00
2023-04-24T05:54:53.195Z,100.00
2023-04-24T05:57:24.669Z,100.00
2023-04-24T05:59:56.142Z,100.00
2023-04-24T06:02:27.795Z,100.00
2023-04-24T06:04:59.781Z,100.00
2023-04-24T06:07:31.437Z,100.00
2023-04-24T06:10:03.330Z,100.00
2023-04-24T06:12:34.822Z,100.00
2023-04-24T06:15:06.785Z,100.00
2023-04-24T06:17:38.289Z,100.00
2023-04-24T06:20:09.813Z,100.00
2023-04-24T06:22:41.247Z,100.00
2023-04-24T06:25:13.200Z,100.00
2023-04-24T06:27:44.746Z,100.00
2023-04-24T06:30:16.597Z,98.72
2023-04-24T06:32:48.110Z,95.99
2023-04-24T06:35:19.956Z,93.84
2023-04-24T06:37:51.461Z,90.78
2023-04-24T06:40:23.262Z,90.42
2023-04-24T06:42:54.714Z,92.83
2023-04-24T06:45:26.543Z,89.37
2023-04-24T06:47:58.092Z,88.04
2023-04-24T06:50:29.567Z,89.62
2023-04-24T06:53:01.041Z,85.13
2023-04-24T06:55:32.574Z,80.42
2023-04-24T06:58:04.009Z,79.14
2023-04-24T07:00:35.781Z,79.29
2023-04-24T07:03:07.413Z,78.39
2023-04-24T07:05:39.378Z,77.55
2023-04-24T07:08:10.838Z,74.19
2023-04-24T07:10:42.286Z,78.76
2023-04-24T07:13:13.752Z,80.10
2023-04-24T07:15:45.574Z,80.51
2023-04-24T07:18:17.249Z,81.06
2023-04-24T07:20:49.020Z,79.44
2023-04-24T07:23:20.464Z,81.00
2023-04-24T07:25:51.929Z,77.24
2023-04-24T07:28:23.379Z,76.15
2023-04-24T07:30:54.932Z,79.07
2023-04-24T07:33:26.523Z,77.56
2023-04-24T07:35:58.273Z,76.93
2023-04-24T07:38:29.716Z,76.35
2023-04-24T07:41:01.460Z,77.81
2023-04-24T07:43:32.904Z,77.80
2023-04-24T07:46:06.049Z,78.78
2023-04-24T07:48:38.555Z,79.21
2023-04-24T07:51:10.272Z,76.91
2023-04-24T07:53:41.713Z,75.37
2023-04-24T07:56:13.173Z,73.60
2023-04-24T07:58:44.611Z,72.05
2023-04-24T08:01:16.375Z,71.33
2023-04-24T08:03:48.001Z,67.96
2023-04-24T08:06:19.958Z,68.99
2023-04-24T08:08:51.425Z,69.21
2023-04-24T08:11:24.851Z,65.13
2023-04-24T08:13:56.450Z,65.99
2023-04-24T08:16:28.295Z,66.82
2023-04-24T08:18:59.756Z,64.20
2023-04-24T08:21:31.577Z,61.72
2023-04-24T08:24:03.022Z,63.04
2023-04-24T08:26:34.781Z,60.76
2023-04-24T08:29:06.230Z,58.63
2023-04-24T08:31:38.148Z,59.30
2023-04-24T08:34:09.643Z,60.72
2023-04-24T08:36:46.940Z,60.52
2023-04-24T08:39:19.089Z,62.55
2023-04-24T08:41:50.524Z,60.99
2023-04-24T08:44:22.363Z,59.49
2023-04-24T08:46:53.854Z,61.76
2023-04-24T08:49:25.507Z,58.90
2023-04-24T08:51:56.944Z,60.68
2023-04-24T08:54:28.826Z,62.11
2023-04-24T08:57:00.283Z,66.62
2023-04-24T08:59:32.093Z,66.93
2023-04-24T09:02:03.602Z,65.89
2023-04-24T09:04:35.301Z,64.98
2023-04-24T09:07:06.957Z,64.96
2023-04-24T09:09:38.435Z,66.46
2023-04-24T09:12:09.876Z,67.16
2023-04-24T09:14:41.319Z,67.22
2023-04-24T09:17:12.822Z,66.62
2023-04-24T09:19:44.953Z,64.55
2023-04-24T09:22:16.570Z,66.00
2023-04-24T09:24:48.338Z,65.96
2023-04-24T09:27:19.798Z,66.17
2023-04-24T09:29:51.301Z,64.35
2023-04-24T09:32:23.217Z,66.76
2023-04-24T09:34:54.950Z,65.17
2023-04-24T09:37:26.385Z,65.93
2023-04-24T09:39:58.189Z,66.73
2023-04-24T09:42:29.639Z,64.87
2023-04-24T09:45:12.113Z,64.23
2023-04-24T09:47:46.533Z,62.90
2023-04-24T09:50:18.884Z,65.32
2023-04-24T09:52:52.116Z,66.57
2023-04-24T09:55:23.897Z,64.10
2023-04-24T09:57:55.369Z,61.01
2023-04-24T10:00:27.242Z,60.45
2023-04-24T10:02:58.788Z,59.25
2023-04-24T10:05:30.724Z,58.80
2023-04-24T10:08:02.177Z,58.89
2023-04-24T10:10:34.121Z,57.31
2023-04-24T10:13:05.589Z,58.05
2023-04-24T10:15:37.054Z,59.20
2023-04-24T10:18:08.606Z,56.80
2023-04-24T10:20:40.465Z,58.98
2023-04-24T10:23:11.941Z,57.30
2023-04-24T10:25:43.852Z,57.20
2023-04-24T10:28:15.384Z,58.85
2023-04-24T10:30:47.380Z,61.45
2023-04-24T10:33:18.844Z,62.50
2023-04-24T10:35:50.303Z,63.66
2023-04-24T10:38:21.786Z,65.16
2023-04-24T10:40:53.250Z,66.69
2023-04-24T10:43:24.722Z,67.89
2023-04-24T10:45:56.178Z,66.62
2023-04-24T10:48:27.626Z,66.11
2023-04-24T10:50:59.083Z,65.78
2023-04-24T10:53:30.570Z,64.94
2023-04-24T10:56:02.387Z,62.76
2023-04-24T10:58:33.823Z,57.14
2023-04-24T11:01:05.661Z,56.68
2023-04-24T11:03:38.343Z,53.42
2023-04-24T11:06:10.164Z,54.50
2023-04-24T11:08:41.622Z,55.38
2023-04-24T11:11:13.153Z,56.63
2023-04-24T11:13:44.622Z,58.21
2023-04-24T11:16:16.504Z,59.19
2023-04-24T11:18:48.007Z,61.94
2023-04-24T11:21:19.810Z,65.41
2023-04-24T11:23:51.259Z,79.53
2023-04-24T11:26:23.045Z,100.00
2023-04-24T11:28:54.541Z,100.00
2023-04-24T11:31:26.270Z,100.00
2023-04-24T11:33:57.745Z,100.00
2023-04-24T11:36:29.615Z,95.47
2023-04-24T11:39:01.060Z,88.98
2023-04-24T11:41:32.868Z,89.79
2023-04-24T11:44:04.347Z,87.56
2023-04-24T11:46:36.148Z,91.33
2023-04-24T11:49:07.947Z,89.83
2023-04-24T11:51:51.357Z,86.76
2023-04-24T11:54:25.086Z,86.89
2023-04-24T11:56:56.540Z,90.34
2023-04-24T11:59:28.235Z,85.31
2023-04-24T12:01:59.711Z,77.72
2023-04-24T12:04:34.059Z,80.81
2023-04-24T12:07:06.793Z,77.49
2023-04-24T12:09:38.284Z,71.20
2023-04-24T12:12:11.257Z,68.17
2023-04-24T12:14:44.535Z,68.62
2023-04-24T12:17:15.997Z,64.87
2023-04-24T12:19:47.799Z,61.35
2023-04-24T12:22:19.265Z,61.53
2023-04-24T12:24:50.807Z,63.95
2023-04-24T12:27:22.279Z,63.28
2023-04-24T12:29:53.761Z,61.12
2023-04-24T12:32:26.428Z,52.93
2023-04-24T12:34:59.597Z,49.87
2023-04-24T12:37:31.042Z,49.37
2023-04-24T12:40:02.723Z,51.94
2023-04-24T12:42:34.206Z,49.34
2023-04-24T12:45:05.918Z,49.85
2023-04-24T12:47:37.418Z,48.52
2023-04-24T12:50:08.928Z,49.48
2023-04-24T12:52:40.423Z,47.90
2023-04-24T12:55:12.299Z,45.52
2023-04-24T12:57:43.811Z,42.98
2023-04-24T13:00:16.050Z,41.53
2023-04-24T13:02:49.179Z,42.25
2023-04-24T13:05:21.988Z,44.56
2023-04-24T13:07:54.433Z,44.20
2023-04-24T13:10:26.016Z,43.62
2023-04-24T13:12:57.549Z,45.18
2023-04-24T13:15:29.234Z,45.09
2023-04-24T13:18:00.756Z,45.54
2023-04-24T13:20:32.367Z,44.71
2023-04-24T13:23:03.898Z,42.40
2023-04-24T13:25:35.794Z,38.76
2023-04-24T13:28:07.243Z,38.24
2023-04-24T13:30:38.719Z,37.96
2023-04-24T13:33:10.217Z,38.12
2023-04-24T13:35:41.900Z,39.04
2023-04-24T13:38:13.344Z,37.20
2023-04-24T13:40:45.159Z,37.61
2023-04-24T13:43:16.593Z,38.55
2023-04-24T13:45:48.461Z,38.86
2023-04-24T13:48:19.912Z,37.58
2023-04-24T13:50:51.403Z,40.34
2023-04-24T13:53:22.866Z,42.20
2023-04-24T13:55:54.317Z,42.96
2023-04-24T13:58:25.794Z,42.93
2023-04-24T14:00:57.330Z,41.86
2023-04-24T14:03:28.981Z,41.75
2023-04-24T14:06:00.865Z,39.81
2023-04-24T14:08:32.314Z,40.01
2023-04-24T14:11:04.635Z,41.04
2023-04-24T14:13:36.191Z,38.99
2023-04-24T14:16:07.678Z,39.48
2023-04-24T14:18:39.191Z,39.58
2023-04-24T14:21:11.007Z,40.64
2023-04-24T14:23:42.949Z,39.51
2023-04-24T14:26:15.027Z,38.46
2023-04-24T14:28:46.599Z,39.04
2023-04-24T14:31:18.416Z,39.41
2023-04-24T14:33:49.887Z,38.52
2023-04-24T14:36:21.691Z,38.55
2023-04-24T14:38:53.170Z,37.56
2023-04-24T14:41:24.825Z,38.46
2023-04-24T14:43:56.373Z,38.56
2023-04-24T14:46:27.880Z,38.97
2023-04-24T14:48:59.356Z,40.64
2023-04-24T14:51:31.224Z,40.83
2023-04-24T14:54:02.693Z,41.27
2023-04-24T14:56:34.201Z,42.00
2023-04-24T14:59:05.698Z,43.14
2023-04-24T15:01:37.524Z,43.10
2023-04-24T15:04:09.063Z,44.17
2023-04-24T15:06:40.955Z,44.44
2023-04-24T15:09:12.424Z,44.00
2023-04-24T15:11:44.216Z,41.67
2023-04-24T15:14:15.670Z,40.19
2023-04-24T15:16:47.414Z,39.74
2023-04-24T15:19:18.877Z,41.18
2023-04-24T15:21:50.338Z,40.88
2023-04-24T15:24:21.799Z,42.05
2023-04-24T15:26:53.249Z,43.80
2023-04-24T15:29:24.691Z,44.43
2023-04-24T15:31:56.188Z,45.36
2023-04-24T15:34:27.756Z,45.18
2023-04-24T15:36:59.218Z,45.56
2023-04-24T15:39:31.117Z,47.51
2023-04-24T15:42:02.562Z,46.87
2023-04-24T15:44:34.018Z,47.08
2023-04-24T15:47:05.509Z,47.14
2023-04-24T15:49:37.117Z,47.22
2023-04-24T15:52:08.556Z,47.00
2023-04-24T15:54:40.016Z,46.41
2023-04-24T15:57:11.463Z,48.67
2023-04-24T15:59:43.245Z,47.26
2023-04-24T16:02:14.838Z,47.41
2023-04-24T16:04:46.771Z,48.95
2023-04-24T16:07:18.390Z,48.10
2023-04-24T16:09:49.867Z,48.70
2023-04-24T16:12:21.329Z,48.92
2023-04-24T16:14:52.873Z,48.90
2023-04-24T16:17:24.330Z,49.17
2023-04-24T16:19:55.950Z,50.28
2023-04-24T16:22:27.521Z,49.81
2023-04-24T16:24:59.429Z,49.86
2023-04-24T16:27:30.893Z,50.95
2023-04-24T16:30:02.880Z,51.33
2023-04-24T16:32:34.486Z,51.56
2023-04-24T16:35:06.392Z,51.42
2023-04-24T16:37:37.847Z,51.54
2023-04-24T16:40:09.517Z,51.79
2023-04-24T16:42:41.011Z,52.70
2023-04-24T16:45:12.798Z,54.76
2023-04-24T16:47:44.285Z,57.59
2023-04-24T16:50:16.074Z,59.73
2023-04-24T16:52:47.609Z,61.77
2023-04-24T16:55:19.132Z,63.17
2023-04-24T16:57:50.606Z,64.35
2023-04-24T17:00:22.064Z,66.09
2023-04-24T17:02:53.646Z,65.81
2023-04-24T17:05:25.192Z,66.86
2023-04-24T17:07:56.650Z,67.44
2023-04-24T17:10:28.124Z,69.14
2023-04-24T17:12:59.595Z,69.86
2023-04-24T17:15:31.349Z,70.68
2023-04-24T17:18:02.962Z,71.52
2023-04-24T17:20:34.789Z,72.26
2023-04-24T17:23:06.313Z,72.88
2023-04-24T17:25:38.066Z,73.91
2023-04-24T17:28:09.513Z,73.15
2023-04-24T17:30:41.396Z,72.53
2023-04-24T17:33:12.916Z,73.63
2023-04-24T17:35:44.425Z,73.21
2023-04-24T17:38:15.881Z,73.08
2023-04-24T17:40:47.999Z,73.21
2023-04-24T17:43:19.455Z,71.70
2023-04-24T17:45:51.107Z,72.59
2023-04-24T17:48:22.647Z,73.65
2023-04-24T17:50:54.653Z,74.79
2023-04-24T17:53:26.145Z,74.73
2023-04-24T17:55:57.961Z,73.89
2023-04-24T17:58:29.404Z,72.40
2023-04-24T18:01:01.021Z,72.50
2023-04-24T18:03:32.679Z,73.53
2023-04-24T18:06:04.269Z,74.12
2023-04-24T18:08:35.711Z,74.69
2023-04-24T18:11:07.562Z,74.75
2023-04-24T18:13:39.010Z,75.61
2023-04-24T18:16:10.495Z,75.70
2023-04-24T18:18:42.045Z,75.70
2023-04-24T18:21:13.844Z,75.62
2023-04-24T18:23:45.290Z,76.03
2023-04-24T18:26:16.955Z,75.59
2023-04-24T18:28:48.737Z,76.03
2023-04-24T18:31:20.948Z,76.61
2023-04-24T18:33:52.452Z,76.65
2023-04-24T18:36:23.933Z,77.05
2023-04-24T18:38:55.404Z,76.66
2023-04-24T18:41:26.882Z,76.46
2023-04-24T18:43:58.463Z,77.37
2023-04-24T18:46:29.990Z,76.88
2023-04-24T18:49:01.860Z,76.85
2023-04-24T18:51:40.347Z,77.49
2023-04-24T18:54:18.627Z,77.94
2023-04-24T18:56:50.111Z,78.54
2023-04-24T18:59:21.604Z,79.29
2023-04-24T19:01:53.224Z,78.16
2023-04-24T19:04:25.160Z,79.25
2023-04-24T19:06:56.754Z,79.37
2023-04-24T19:09:28.253Z,79.49
2023-04-24T19:11:59.702Z,80.48
2023-04-24T19:14:33.193Z,80.66
2023-04-24T19:17:04.654Z,81.29
2023-04-24T19:19:36.185Z,81.72
2023-04-24T19:22:07.811Z,82.12
2023-04-24T19:24:39.597Z,82.38
2023-04-24T19:27:11.087Z,83.41
2023-04-24T19:29:42.618Z,83.89
2023-04-24T19:32:14.105Z,84.60
2023-04-24T19:34:45.576Z,83.91
2023-04-24T19:37:17.039Z,84.70
2023-04-24T19:39:48.524Z,84.24
2023-04-24T19:42:28.337Z,86.06
2023-04-24T19:45:03.664Z,83.88
2023-04-24T19:47:35.103Z,85.56
2023-04-24T19:50:06.894Z,84.57
2023-04-24T19:52:38.330Z,84.37
2023-04-24T19:55:09.972Z,84.39
2023-04-24T19:57:41.497Z,85.04
2023-04-24T20:00:13.325Z,85.24
2023-04-24T20:02:44.936Z,85.76
2023-04-24T20:05:16.906Z,85.71
2023-04-24T20:07:48.442Z,85.92
2023-04-24T20:10:20.078Z,85.85
2023-04-24T20:12:51.597Z,86.34
2023-04-24T20:15:23.246Z,86.63
2023-04-24T20:17:54.682Z,86.54
2023-04-24T20:20:26.588Z,87.25
2023-04-24T20:22:58.060Z,86.89
2023-04-24T20:25:29.684Z,87.64
2023-04-24T20:28:01.147Z,87.09
2023-04-24T20:30:32.770Z,87.26
2023-04-24T20:33:04.266Z,87.78
2023-04-24T20:35:36.085Z,88.39
2023-04-24T20:38:07.515Z,88.13
2023-04-24T20:40:50.162Z,88.83
2023-04-24T20:43:29.113Z,88.63
2023-04-24T20:46:01.168Z,89.60
2023-04-24T20:48:32.638Z,90.47
2023-04-24T20:51:04.340Z,90.58
2023-04-24T20:53:35.787Z,91.03
2023-04-24T20:56:07.256Z,91.69
2023-04-24T20:58:39.039Z,91.53
2023-04-24T21:01:10.536Z,93.09
2023-04-24T21:03:42.348Z,93.74
2023-04-24T21:06:13.906Z,93.28
2023-04-24T21:08:45.656Z,94.16
2023-04-24T21:11:17.101Z,93.85
2023-04-24T21:13:49.049Z,94.21
2023-04-24T21:16:20.719Z,95.47
2023-04-24T21:18:52.225Z,95.76
2023-04-24T21:21:23.822Z,96.13
2023-04-24T21:23:55.291Z,96.42
2023-04-24T21:26:26.724Z,96.68
2023-04-24T21:28:58.497Z,97.48
2023-04-24T21:31:29.968Z,97.80
2023-04-24T21:34:01.788Z,98.23
2023-04-24T21:36:33.248Z,98.24
2023-04-24T21:41:54.114Z,98.20
2023-04-24T21:44:25.909Z,98.49
2023-04-24T21:46:57.381Z,98.74
2023-04-24T21:49:29.304Z,99.47
2023-04-24T21:52:00.748Z,99.64
2023-04-24T21:54:32.551Z,99.76
2023-04-24T21:57:04.465Z,99.74
2023-04-24T21:59:35.917Z,99.79
2023-04-24T22:02:07.549Z,99.56
2023-04-24T22:04:39.115Z,99.12
2023-04-24T22:07:11.114Z,99.72
2023-04-24T22:09:42.576Z,100.00
2023-04-24T22:12:14.265Z,100.00
2023-04-24T22:14:45.707Z,100.00
2023-04-24T22:17:17.369Z,100.00
2023-04-24T22:19:48.841Z,100.00
2023-04-24T22:22:20.653Z,100.00
2023-04-24T22:24:52.100Z,100.00
2023-04-24T22:27:23.886Z,100.00
2023-04-24T22:29:55.472Z,100.00
2023-04-24T22:32:27.290Z,100.00
2023-04-24T22:34:58.747Z,100.00
2023-04-24T22:37:30.555Z,100.00
2023-04-24T22:40:02.015Z,100.00
2023-04-24T22:42:33.817Z,100.00
2023-04-24T22:45:05.266Z,100.00
2023-04-24T22:47:37.061Z,100.00
2023-04-24T22:50:08.547Z,100.00
2023-04-24T22:52:40.330Z,100.00
2023-04-24T22:55:11.793Z,100.00
2023-04-24T22:57:43.229Z,100.00
2023-04-24T23:00:14.674Z,100.00
2023-04-24T23:02:46.477Z,100.00
2023-04-24T23:05:18.059Z,100.00
2023-04-24T23:07:49.526Z,100.00
2023-04-24T23:10:21.268Z,100.00
2023-04-24T23:12:52.709Z,100.00
2023-04-24T23:15:24.579Z,100.00
2023-04-24T23:17:56.115Z,100.00
2023-04-24T23:20:28.042Z,100.00
2023-04-24T23:22:59.705Z,100.00
2023-04-24T23:25:31.448Z,100.00
2023-04-24T23:28:02.928Z,100.00
2023-04-24T23:30:34.738Z,99.72
2023-04-24T23:33:06.301Z,99.66
2023-04-24T23:35:38.166Z,99.34
2023-04-24T23:38:09.586Z,98.32
2023-04-24T23:40:41.501Z,98.00
2023-04-24T23:43:13.025Z,97.54
2023-04-24T23:45:45.038Z,96.72
2023-04-24T23:48:16.512Z,96.60
2023-04-24T23:50:48.210Z,96.39
2023-04-24T23:53:19.656Z,95.54
2023-04-24T23:55:51.113Z,94.75
2023-04-24T23:58:22.578Z,94.78
